Time;durP1;ratioP1;P1;durP2;ratioP2;P2;SDS_P1;SDS_P2;PMS_P1;PMS_P2;Temp;Humidity;BMP_temperature;BMP_pressure;BME280_temperature;BME280_humidity;BME280_pressure;Samples;Min_cycle;Max_cycle;Signal;HPM_P1;HPM_P2
2023/09/24 00:01:35;;;;;;;0.28;0.28;;;;;;;;;;5005895;28;20090;-95
2023/09/24 00:04:01;;;;;;;0.40;0.40;;;;;;;;;;5023079;28;20555;-96
2023/09/24 00:06:27;;;;;;;0.20;0.20;;;;;;;;;;5025882;28;20421;-95
2023/09/24 00:08:53;;;;;;;0.20;0.20;;;;;;;;;;5022328;28;20073;-96
2023/09/24 00:11:19;;;;;;;0.35;0.35;;;;;;;;;;5024253;28;20037;-96
2023/09/24 00:13:46;;;;;;;0.20;0.20;;;;;;;;;;5011769;28;20038;-95
2023/09/24 00:16:18;;;;;;;0.30;0.30;;;;;;;;;;5015425;28;20050;-95
2023/09/24 00:18:44;;;;;;;0.20;0.20;;;;;;;;;;5001725;28;20054;-95
2023/09/24 00:21:11;;;;;;;0.30;0.30;;;;;;;;;;5006980;28;20052;-96
2023/09/24 00:23:39;;;;;;;0.30;0.30;;;;;;;;;;5022686;28;21549;-96
2023/09/24 00:26:05;;;;;;;0.25;0.25;;;;;;;;;;5010157;28;20518;-95
2023/09/24 00:28:31;;;;;;;0.30;0.30;;;;;;;;;;5003619;28;20068;-95
2023/09/24 00:31:00;;;;;;;0.20;0.20;;;;;;;;;;5005175;28;20053;-96
2023/09/24 00:33:27;;;;;;;0.20;0.20;;;;;;;;;;5005804;28;20048;-95
2023/09/24 00:35:53;;;;;;;0.38;0.38;;;;;;;;;;5005460;28;20052;-96
2023/09/24 00:38:20;;;;;;;0.20;0.20;;;;;;;;;;5002277;28;20037;-96
2023/09/24 00:40:46;;;;;;;0.20;0.20;;;;;;;;;;5002896;28;20045;-95
2023/09/24 00:43:29;;;;;;;0.10;0.10;;;;;;;;;;5007091;28;20445;-96
2023/09/24 00:45:57;;;;;;;0.28;0.28;;;;;;;;;;5023182;28;20140;-95
2023/09/24 00:48:27;;;;;;;0.30;0.30;;;;;;;;;;5023158;28;20041;-95
2023/09/24 00:50:56;;;;;;;0.28;0.28;;;;;;;;;;5024509;28;20057;-96
2023/09/24 00:53:23;;;;;;;0.20;0.20;;;;;;;;;;5017416;28;20042;-95
2023/09/24 00:55:50;;;;;;;0.30;0.30;;;;;;;;;;5009625;28;20061;-96
2023/09/24 00:58:18;;;;;;;0.30;0.30;;;;;;;;;;5023244;28;20045;-96
2023/09/24 01:00:46;;;;;;;0.30;0.30;;;;;;;;;;5018313;28;20106;-95
2023/09/24 01:03:16;;;;;;;0.30;0.30;;;;;;;;;;5023559;28;20473;-95
2023/09/24 01:05:43;;;;;;;0.30;0.30;;;;;;;;;;5030480;28;20060;-96
2023/09/24 01:08:26;;;;;;;0.30;0.30;;;;;;;;;;5026036;28;20049;-96
2023/09/24 01:10:58;;;;;;;0.30;0.30;;;;;;;;;;5023255;28;20113;-95
2023/09/24 01:13:24;;;;;;;0.20;0.20;;;;;;;;;;5029757;28;20041;-96
2023/09/24 01:15:51;;;;;;;0.17;0.17;;;;;;;;;;5012979;28;20045;-96
2023/09/24 01:18:20;;;;;;;0.30;0.30;;;;;;;;;;5005931;28;20056;-95
2023/09/24 01:20:47;;;;;;;0.30;0.30;;;;;;;;;;5022397;28;20042;-96
2023/09/24 01:23:14;;;;;;;0.20;0.20;;;;;;;;;;5010219;28;20069;-93
2023/09/24 01:25:42;;;;;;;0.28;0.28;;;;;;;;;;5007948;28;20038;-96
2023/09/24 01:28:10;;;;;;;0.20;0.20;;;;;;;;;;5005853;28;20037;-96
2023/09/24 01:30:36;;;;;;;0.25;0.25;;;;;;;;;;5010004;28;20506;-95
2023/09/24 01:33:04;;;;;;;0.30;0.30;;;;;;;;;;5010310;28;20042;-95
2023/09/24 01:35:33;;;;;;;0.30;0.30;;;;;;;;;;4994411;28;20065;-96
2023/09/24 01:38:03;;;;;;;0.20;0.20;;;;;;;;;;5013383;28;20041;-96
2023/09/24 01:40:37;;;;;;;0.20;0.20;;;;;;;;;;5019667;28;20060;-96
2023/09/24 01:43:05;;;;;;;0.20;0.20;;;;;;;;;;5011468;28;20100;-96
2023/09/24 01:45:33;;;;;;;0.20;0.20;;;;;;;;;;5023447;28;20498;-96
2023/09/24 01:48:00;;;;;;;0.30;0.30;;;;;;;;;;5020970;28;20043;-96
2023/09/24 01:50:36;;;;;;;0.30;0.30;;;;;;;;;;5021455;28;20120;-96
2023/09/24 01:53:03;;;;;;;0.20;0.20;;;;;;;;;;5025622;28;20025;-96
2023/09/24 01:55:29;;;;;;;0.10;0.10;;;;;;;;;;5027270;28;20067;-96
2023/09/24 03:58:53;;;;;;;0.10;0.10;;;;;;;;;;4470253;23;20387;-95
2023/09/24 04:01:19;;;;;;;0.30;0.30;;;;;;;;;;4976393;28;20073;-96
2023/09/24 04:03:46;;;;;;;0.20;0.20;;;;;;;;;;4992652;28;20042;-96
2023/09/24 04:06:12;;;;;;;0.20;0.20;;;;;;;;;;4977736;28;20051;-96
2023/09/24 04:08:40;;;;;;;0.17;0.17;;;;;;;;;;4982698;28;20046;-96
2023/09/24 05:58:45;;;;;;;0.20;0.20;;;;;;;;;;5029813;28;20052;-96
2023/09/24 06:01:32;;;;;;;0.20;0.20;;;;;;;;;;4993293;28;20045;-92
2023/09/24 06:04:27;;;;;;;0.35;0.35;;;;;;;;;;5028563;28;20084;-95
2023/09/24 06:07:12;;;;;;;0.20;0.20;;;;;;;;;;4974789;28;20033;-94
2023/09/24 06:09:42;;;;;;;0.20;0.20;;;;;;;;;;5006319;28;20049;-96
2023/09/24 06:12:08;;;;;;;0.28;0.28;;;;;;;;;;5000521;28;20026;-96
2023/09/24 08:01:32;;;;;;;0.20;0.20;;;;;;;;;;766836;23;20316;-95
2023/09/24 08:03:59;;;;;;;0.30;0.30;;;;;;;;;;4976480;28;20060;-96
2023/09/24 08:06:28;;;;;;;0.30;0.30;;;;;;;;;;5002768;28;20174;-93
2023/09/24 08:08:54;;;;;;;0.30;0.30;;;;;;;;;;4981848;28;20523;-95
2023/09/24 08:11:21;;;;;;;0.10;0.10;;;;;;;;;;4983896;28;20065;-95
2023/09/24 08:13:47;;;;;;;0.30;0.30;;;;;;;;;;4993020;28;20058;-94
2023/09/24 08:16:13;;;;;;;0.20;0.20;;;;;;;;;;4984085;28;20054;-94
2023/09/24 08:18:40;;;;;;;0.20;0.20;;;;;;;;;;4970232;28;20118;-96
2023/09/24 08:21:06;;;;;;;0.20;0.20;;;;;;;;;;4981571;28;20046;-94
2023/09/24 08:23:32;;;;;;;0.30;0.30;;;;;;;;;;4975202;28;20474;-95
2023/09/24 08:26:01;;;;;;;0.22;0.22;;;;;;;;;;4980899;28;20251;-94
2023/09/24 08:28:27;;;;;;;0.38;0.38;;;;;;;;;;4977056;28;20155;-95
2023/09/24 08:30:55;;;;;;;0.20;0.20;;;;;;;;;;4978182;28;20042;-95
2023/09/24 08:33:55;;;;;;;0.20;0.20;;;;;;;;;;4975476;28;20440;-92
2023/09/24 08:36:24;;;;;;;0.13;0.13;;;;;;;;;;4979818;28;20046;-91
2023/09/24 08:38:50;;;;;;;0.22;0.22;;;;;;;;;;4980875;28;20074;-91
2023/09/24 08:41:16;;;;;;;0.30;0.30;;;;;;;;;;4978528;28;20049;-91
2023/09/24 08:43:43;;;;;;;0.20;0.20;;;;;;;;;;4978574;28;20046;-90
2023/09/24 08:46:10;;;;;;;0.10;0.10;;;;;;;;;;4981504;28;20257;-91
2023/09/24 08:48:37;;;;;;;0.13;0.13;;;;;;;;;;4976447;28;20054;-91
2023/09/24 08:51:03;;;;;;;0.30;0.30;;;;;;;;;;4965708;28;20046;-91
2023/09/24 08:53:30;;;;;;;0.30;0.30;;;;;;;;;;4979574;28;20035;-91
2023/09/24 08:55:56;;;;;;;0.20;0.20;;;;;;;;;;4997532;28;20463;-87
2023/09/24 08:58:23;;;;;;;0.20;0.20;;;;;;;;;;4977356;28;20059;-92
2023/09/24 09:00:51;;;;;;;0.28;0.28;;;;;;;;;;4961964;28;20489;-92
2023/09/24 09:03:19;;;;;;;0.30;0.30;;;;;;;;;;4976388;28;20042;-92
2023/09/24 09:05:45;;;;;;;0.30;0.30;;;;;;;;;;4998515;28;20106;-93
2023/09/24 09:08:11;;;;;;;0.20;0.20;;;;;;;;;;4981732;28;20049;-92
2023/09/24 09:10:38;;;;;;;0.10;0.10;;;;;;;;;;4979184;28;20047;-93
2023/09/24 09:13:12;;;;;;;0.20;0.20;;;;;;;;;;4969937;28;20042;-91
2023/09/24 09:15:38;;;;;;;0.30;0.30;;;;;;;;;;4977593;28;20436;-90
2023/09/24 09:18:04;;;;;;;0.13;0.13;;;;;;;;;;4979784;28;20034;-90
2023/09/24 09:20:44;;;;;;;0.22;0.22;;;;;;;;;;4980990;28;20253;-93
2023/09/24 09:23:12;;;;;;;0.30;0.30;;;;;;;;;;4976334;28;20038;-90
2023/09/24 09:25:49;;;;;;;0.20;0.20;;;;;;;;;;4960909;28;20499;-90
2023/09/24 09:28:35;;;;;;;0.30;0.30;;;;;;;;;;4960982;28;20042;-91
2023/09/24 09:31:06;;;;;;;0.20;0.20;;;;;;;;;;4975934;28;20062;-89
2023/09/24 09:33:36;;;;;;;0.10;0.10;;;;;;;;;;4992361;28;20039;-89
2023/09/24 09:36:02;;;;;;;0.17;0.17;;;;;;;;;;4965375;28;20088;-91
2023/09/24 09:38:29;;;;;;;0.20;0.20;;;;;;;;;;4995642;28;20046;-90
2023/09/24 09:40:59;;;;;;;0.10;0.10;;;;;;;;;;4976832;28;20039;-90
2023/09/24 09:43:33;;;;;;;0.20;0.20;;;;;;;;;;4976135;28;20050;-91
2023/09/24 09:46:02;;;;;;;0.10;0.10;;;;;;;;;;4981538;28;20511;-91
2023/09/24 09:48:30;;;;;;;0.20;0.20;;;;;;;;;;4995905;28;20049;-91
2023/09/24 09:51:06;;;;;;;0.20;0.20;;;;;;;;;;4981714;28;20050;-92
2023/09/24 09:53:35;;;;;;;0.20;0.20;;;;;;;;;;4977718;28;20039;-92
2023/09/24 09:56:02;;;;;;;0.20;0.20;;;;;;;;;;4964003;28;20046;-90
2023/09/24 09:58:36;;;;;;;0.20;0.20;;;;;;;;;;4961800;28;20042;-91
2023/09/24 10:01:03;;;;;;;0.20;0.20;;;;;;;;;;4961770;28;20045;-94
2023/09/24 10:03:30;;;;;;;0.30;0.30;;;;;;;;;;4977205;28;20070;-93
2023/09/24 10:06:00;;;;;;;0.30;0.30;;;;;;;;;;4999054;28;20553;-92
2023/09/24 10:08:35;;;;;;;0.10;0.10;;;;;;;;;;4981324;28;20070;-92
2023/09/24 10:11:03;;;;;;;0.20;0.20;;;;;;;;;;4982311;28;20069;-92
2023/09/24 10:13:48;;;;;;;0.20;0.20;;;;;;;;;;4980120;28;20126;-94
2023/09/24 10:16:23;;;;;;;0.20;0.20;;;;;;;;;;4978564;28;20389;-92
2023/09/24 10:18:56;;;;;;;0.15;0.15;;;;;;;;;;4962372;28;20040;-93
2023/09/24 10:21:43;;;;;;;0.15;0.15;;;;;;;;;;4962773;28;20043;-92
2023/09/24 10:24:15;;;;;;;0.20;0.20;;;;;;;;;;4972998;28;20039;-92
2023/09/24 10:27:04;;;;;;;0.20;0.20;;;;;;;;;;4980396;28;20054;-92
2023/09/24 10:29:46;;;;;;;0.15;0.15;;;;;;;;;;4980056;28;20057;-93
2023/09/24 10:32:17;;;;;;;0.17;0.17;;;;;;;;;;4979287;28;20411;-92
2023/09/24 10:34:57;;;;;;;0.05;0.05;;;;;;;;;;4979202;28;20065;-91
2023/09/24 10:37:47;;;;;;;0.10;0.10;;;;;;;;;;4979798;28;20149;-93
2023/09/24 10:40:14;;;;;;;0.30;0.30;;;;;;;;;;4976626;28;20038;-92
2023/09/24 10:42:45;;;;;;;0.10;0.10;;;;;;;;;;4979212;28;20125;-92
2023/09/24 10:45:12;;;;;;;0.20;0.20;;;;;;;;;;4980850;28;20042;-93
2023/09/24 10:47:39;;;;;;;0.10;0.10;;;;;;;;;;4996146;28;20054;-91
2023/09/24 10:50:14;;;;;;;0.20;0.20;;;;;;;;;;4980825;28;20049;-91
2023/09/24 10:52:54;;;;;;;0.10;0.10;;;;;;;;;;4995447;28;20109;-93
2023/09/24 10:55:29;;;;;;;0.10;0.10;;;;;;;;;;4981397;28;20054;-92
2023/09/24 10:57:56;;;;;;;0.20;0.20;;;;;;;;;;4980133;28;20514;-92
2023/09/24 11:00:28;;;;;;;0.10;0.10;;;;;;;;;;4980444;28;20555;-93
2023/09/24 11:02:54;;;;;;;0.00;0.00;;;;;;;;;;4996171;28;20042;-92
2023/09/24 11:05:24;;;;;;;0.13;0.13;;;;;;;;;;4981867;28;20039;-93
2023/09/24 11:07:50;;;;;;;0.15;0.15;;;;;;;;;;4980303;28;20392;-92
2023/09/24 11:10:20;;;;;;;0.10;0.10;;;;;;;;;;4980150;28;20039;-93
2023/09/24 11:12:48;;;;;;;0.10;0.10;;;;;;;;;;4981655;28;20089;-94
2023/09/24 11:15:14;;;;;;;0.03;0.03;;;;;;;;;;4979453;28;20046;-93
2023/09/24 11:17:41;;;;;;;0.10;0.10;;;;;;;;;;4979675;28;20137;-93
2023/09/24 11:20:10;;;;;;;0.17;0.17;;;;;;;;;;4980893;28;20038;-94
2023/09/24 11:22:37;;;;;;;0.20;0.20;;;;;;;;;;4976456;28;20043;-93
2023/09/24 11:25:10;;;;;;;0.20;0.20;;;;;;;;;;4961454;28;20492;-92
2023/09/24 11:27:49;;;;;;;0.13;0.13;;;;;;;;;;4967084;28;20038;-93
2023/09/24 11:30:16;;;;;;;0.20;0.20;;;;;;;;;;4979568;28;20042;-93
2023/09/24 11:32:43;;;;;;;0.10;0.10;;;;;;;;;;4975922;28;20064;-92
2023/09/24 11:35:10;;;;;;;0.28;0.28;;;;;;;;;;4972537;28;20121;-93
2023/09/24 11:37:50;;;;;;;0.10;0.10;;;;;;;;;;4996183;28;20039;-92
2023/09/24 11:40:28;;;;;;;0.20;0.20;;;;;;;;;;4981556;28;20042;-92
2023/09/24 11:42:56;;;;;;;0.10;0.10;;;;;;;;;;4983873;28;20019;-93
2023/09/24 11:45:35;;;;;;;0.20;0.20;;;;;;;;;;4984299;28;20097;-95
2023/09/24 11:48:02;;;;;;;0.10;0.10;;;;;;;;;;4983900;28;20069;-93
2023/09/24 11:50:29;;;;;;;0.20;0.20;;;;;;;;;;4982668;28;20081;-94
2023/09/24 11:52:55;;;;;;;0.20;0.20;;;;;;;;;;4978609;28;20488;-93
2023/09/24 11:55:21;;;;;;;0.20;0.20;;;;;;;;;;4964091;28;20049;-93
2023/09/24 11:57:47;;;;;;;0.30;0.30;;;;;;;;;;4965089;28;20039;-93
2023/09/24 12:00:13;;;;;;;0.20;0.20;;;;;;;;;;4983130;28;20045;-94
2023/09/24 12:02:42;;;;;;;0.20;0.20;;;;;;;;;;4979837;28;20045;-95
2023/09/24 12:05:08;;;;;;;0.03;0.03;;;;;;;;;;4997740;28;20046;-95
2023/09/24 12:07:34;;;;;;;0.03;0.03;;;;;;;;;;4985818;28;20106;-93
2023/09/24 12:10:01;;;;;;;0.30;0.30;;;;;;;;;;4983526;28;20050;-93
2023/09/24 12:12:28;;;;;;;0.10;0.10;;;;;;;;;;4978828;28;20042;-93
2023/09/24 12:15:00;;;;;;;0.17;0.17;;;;;;;;;;4963605;28;20053;-93
2023/09/24 12:17:26;;;;;;;0.10;0.10;;;;;;;;;;4964081;28;20130;-94
2023/09/24 12:19:52;;;;;;;0.20;0.20;;;;;;;;;;4964925;28;20502;-94
2023/09/24 12:22:19;;;;;;;0.10;0.10;;;;;;;;;;4971858;28;20097;-92
2023/09/24 12:24:46;;;;;;;0.17;0.17;;;;;;;;;;4967606;28;20130;-93
2023/09/24 12:27:12;;;;;;;0.10;0.10;;;;;;;;;;4984876;28;20045;-93
2023/09/24 12:29:44;;;;;;;0.05;0.05;;;;;;;;;;4983350;28;20125;-92
2023/09/24 12:32:12;;;;;;;0.13;0.13;;;;;;;;;;4981143;28;20210;-91
2023/09/24 12:34:38;;;;;;;0.10;0.10;;;;;;;;;;4981669;28;20144;-92
2023/09/24 12:37:04;;;;;;;0.17;0.17;;;;;;;;;;4984059;28;20561;-92
2023/09/24 12:39:32;;;;;;;0.30;0.30;;;;;;;;;;4967460;28;20061;-91
2023/09/24 12:41:58;;;;;;;0.20;0.20;;;;;;;;;;4982597;28;20038;-94
2023/09/24 12:44:24;;;;;;;0.20;0.20;;;;;;;;;;4981925;28;20046;-91
2023/09/24 12:46:50;;;;;;;0.20;0.20;;;;;;;;;;4997694;28;20049;-93
2023/09/24 12:49:16;;;;;;;0.20;0.20;;;;;;;;;;4982316;28;20042;-92
2023/09/24 12:51:42;;;;;;;0.20;0.20;;;;;;;;;;4983771;28;20065;-92
2023/09/24 12:54:08;;;;;;;0.15;0.15;;;;;;;;;;4981186;28;20039;-92
2023/09/24 12:56:34;;;;;;;0.30;0.30;;;;;;;;;;4981033;28;20049;-92
2023/09/24 12:59:01;;;;;;;0.20;0.20;;;;;;;;;;4980630;28;20044;-91
2023/09/24 13:01:27;;;;;;;0.20;0.20;;;;;;;;;;4977956;28;20050;-92
2023/09/24 13:03:53;;;;;;;0.17;0.17;;;;;;;;;;4960759;28;20399;-93
2023/09/24 13:06:22;;;;;;;0.20;0.20;;;;;;;;;;4975753;28;20047;-91
2023/09/24 13:08:50;;;;;;;0.10;0.10;;;;;;;;;;4997290;28;20037;-91
2023/09/24 13:11:19;;;;;;;0.10;0.10;;;;;;;;;;4979670;28;20085;-92
2023/09/24 13:13:46;;;;;;;0.15;0.15;;;;;;;;;;4979699;28;20042;-92
2023/09/24 13:16:12;;;;;;;0.20;0.20;;;;;;;;;;4977054;28;20096;-91
2023/09/24 13:18:38;;;;;;;0.17;0.17;;;;;;;;;;4960657;28;20046;-92
2023/09/24 13:21:04;;;;;;;0.10;0.10;;;;;;;;;;4980170;28;20457;-92
2023/09/24 13:23:30;;;;;;;0.10;0.10;;;;;;;;;;4976637;28;20070;-93
2023/09/24 13:25:56;;;;;;;0.20;0.20;;;;;;;;;;4961080;28;20043;-91
2023/09/24 13:28:22;;;;;;;0.10;0.10;;;;;;;;;;4961182;28;20057;-93
2023/09/24 13:30:57;;;;;;;0.10;0.10;;;;;;;;;;4963000;28;20047;-92
2023/09/24 13:33:26;;;;;;;0.20;0.20;;;;;;;;;;4980287;28;20113;-92
2023/09/24 13:35:52;;;;;;;0.10;0.10;;;;;;;;;;4980587;28;20042;-92
2023/09/24 13:38:18;;;;;;;0.03;0.03;;;;;;;;;;4980422;28;20105;-91
2023/09/24 13:40:47;;;;;;;0.00;0.00;;;;;;;;;;4980757;28;20053;-91
2023/09/24 13:43:13;;;;;;;0.20;0.20;;;;;;;;;;4960994;28;20097;-92
2023/09/24 13:45:45;;;;;;;0.25;0.25;;;;;;;;;;4987305;28;20041;-93
2023/09/24 13:48:12;;;;;;;0.20;0.20;;;;;;;;;;4997318;28;20394;-92
2023/09/24 13:50:39;;;;;;;0.17;0.17;;;;;;;;;;4981203;28;20442;-92
2023/09/24 13:53:05;;;;;;;0.10;0.10;;;;;;;;;;4976655;28;20040;-91
2023/09/24 13:55:36;;;;;;;0.10;0.10;;;;;;;;;;4961428;28;20112;-93
2023/09/24 13:58:32;;;;;;;0.10;0.10;;;;;;;;;;4961079;28;20082;-92
2023/09/24 14:01:52;;;;;;;0.10;0.10;;;;;;;;;;4995717;28;20072;-92
2023/09/24 14:04:37;;;;;;;0.20;0.20;;;;;;;;;;4978554;28;20042;-92
2023/09/24 14:07:20;;;;;;;0.15;0.15;;;;;;;;;;4982422;28;20129;-91
2023/09/24 14:13:15;;;;;;;0.10;0.10;;;;;;;;;;4994543;28;20046;-92
2023/09/24 14:15:46;;;;;;;0.10;0.10;;;;;;;;;;4980943;28;20066;-92
2023/09/24 14:18:12;;;;;;;0.10;0.10;;;;;;;;;;4979650;28;20098;-92
2023/09/24 14:20:38;;;;;;;0.22;0.22;;;;;;;;;;4980940;28;20049;-91
2023/09/24 14:23:04;;;;;;;0.10;0.10;;;;;;;;;;4979832;28;20050;-91
2023/09/24 14:25:30;;;;;;;0.15;0.15;;;;;;;;;;4980212;28;20042;-91
2023/09/24 14:27:56;;;;;;;0.10;0.10;;;;;;;;;;4979871;28;20042;-93
2023/09/24 14:30:22;;;;;;;0.10;0.10;;;;;;;;;;4979236;28;20498;-92
2023/09/24 14:32:49;;;;;;;0.15;0.15;;;;;;;;;;4995439;28;20504;-92
2023/09/24 14:35:15;;;;;;;0.20;0.20;;;;;;;;;;4979556;28;20483;-91
2023/09/24 14:37:41;;;;;;;0.20;0.20;;;;;;;;;;4980227;28;20050;-92
2023/09/24 14:40:11;;;;;;;0.20;0.20;;;;;;;;;;4978470;28;20038;-92
2023/09/24 14:42:37;;;;;;;0.20;0.20;;;;;;;;;;4979514;28;20039;-92
2023/09/24 14:45:04;;;;;;;0.13;0.13;;;;;;;;;;4980140;28;20030;-92
2023/09/24 14:47:30;;;;;;;0.20;0.20;;;;;;;;;;4979116;28;20053;-91
2023/09/24 14:49:58;;;;;;;0.10;0.10;;;;;;;;;;4995660;28;20046;-91
2023/09/24 14:52:26;;;;;;;0.00;0.00;;;;;;;;;;4979807;28;20469;-91
2023/09/24 14:54:52;;;;;;;0.20;0.20;;;;;;;;;;4978897;28;20097;-91
2023/09/24 14:57:19;;;;;;;0.20;0.20;;;;;;;;;;4979087;28;20039;-92
2023/09/24 14:59:46;;;;;;;0.10;0.10;;;;;;;;;;4979286;28;20038;-93
2023/09/24 15:02:12;;;;;;;0.20;0.20;;;;;;;;;;4978605;28;20134;-92
2023/09/24 15:04:38;;;;;;;0.10;0.10;;;;;;;;;;4978267;28;20074;-93
2023/09/24 15:07:04;;;;;;;0.20;0.20;;;;;;;;;;4980390;28;20042;-92
2023/09/24 15:09:33;;;;;;;0.10;0.10;;;;;;;;;;4979441;28;20049;-92
2023/09/24 15:11:59;;;;;;;0.10;0.10;;;;;;;;;;4974449;28;20096;-92
2023/09/24 15:14:26;;;;;;;0.17;0.17;;;;;;;;;;4982937;28;20137;-91
2023/09/24 15:16:53;;;;;;;0.10;0.10;;;;;;;;;;4984128;28;20049;-92
2023/09/24 15:19:19;;;;;;;0.20;0.20;;;;;;;;;;4984106;28;20045;-91
2023/09/24 15:21:45;;;;;;;0.10;0.10;;;;;;;;;;4980760;28;20134;-92
2023/09/24 15:24:12;;;;;;;0.20;0.20;;;;;;;;;;4963180;28;20113;-93
2023/09/24 15:26:38;;;;;;;0.10;0.10;;;;;;;;;;4965380;28;20066;-92
2023/09/24 15:29:04;;;;;;;0.20;0.20;;;;;;;;;;4964548;28;20083;-91
2023/09/24 15:31:34;;;;;;;0.10;0.10;;;;;;;;;;4965811;28;20038;-92
2023/09/24 15:34:00;;;;;;;0.10;0.10;;;;;;;;;;4982278;28;20038;-91
2023/09/24 15:36:26;;;;;;;0.10;0.10;;;;;;;;;;5000588;28;20073;-90
2023/09/24 15:38:53;;;;;;;0.10;0.10;;;;;;;;;;4965347;28;20051;-92
2023/09/24 15:41:20;;;;;;;0.10;0.10;;;;;;;;;;4948743;28;20038;-91
2023/09/24 15:43:46;;;;;;;0.20;0.20;;;;;;;;;;4980707;28;20050;-92
2023/09/24 15:46:16;;;;;;;0.20;0.20;;;;;;;;;;4983841;28;20060;-92
2023/09/24 15:48:42;;;;;;;0.10;0.10;;;;;;;;;;4999156;28;20085;-92
2023/09/24 15:51:14;;;;;;;0.10;0.10;;;;;;;;;;4984063;28;20052;-93
2023/09/24 15:53:40;;;;;;;0.10;0.10;;;;;;;;;;4982476;28;20085;-90
2023/09/24 15:56:06;;;;;;;0.20;0.20;;;;;;;;;;4981765;28;20060;-91
2023/09/24 15:58:33;;;;;;;0.28;0.28;;;;;;;;;;4982780;28;20499;-91
2023/09/24 16:01:00;;;;;;;0.13;0.13;;;;;;;;;;4983470;28;20034;-90
2023/09/24 16:03:27;;;;;;;0.17;0.17;;;;;;;;;;4983730;28;20050;-91
2023/09/24 16:05:54;;;;;;;0.17;0.17;;;;;;;;;;4980327;28;20043;-92
2023/09/24 16:08:20;;;;;;;0.20;0.20;;;;;;;;;;4963428;28;20039;-92
2023/09/24 16:10:46;;;;;;;0.20;0.20;;;;;;;;;;4962510;28;20046;-89
2023/09/24 16:13:12;;;;;;;0.10;0.10;;;;;;;;;;4962803;28;20042;-90
2023/09/24 16:15:38;;;;;;;0.10;0.10;;;;;;;;;;4966441;28;20038;-91
2023/09/24 16:18:04;;;;;;;0.10;0.10;;;;;;;;;;4968301;28;20566;-91
2023/09/24 16:20:32;;;;;;;0.10;0.10;;;;;;;;;;4964588;28;20038;-92
2023/09/24 16:22:59;;;;;;;0.10;0.10;;;;;;;;;;4962699;28;20034;-89
2023/09/24 16:25:28;;;;;;;0.20;0.20;;;;;;;;;;4968009;28;20039;-94
2023/09/24 16:27:54;;;;;;;0.10;0.10;;;;;;;;;;4986289;28;20050;-91
2023/09/24 16:30:23;;;;;;;0.10;0.10;;;;;;;;;;4980279;28;20046;-92
2023/09/24 16:32:52;;;;;;;0.17;0.17;;;;;;;;;;4976630;28;20038;-90
2023/09/24 16:35:18;;;;;;;0.20;0.20;;;;;;;;;;4976385;28;20034;-90
2023/09/24 16:37:46;;;;;;;0.10;0.10;;;;;;;;;;4975105;28;20062;-92
2023/09/24 16:40:12;;;;;;;0.30;0.30;;;;;;;;;;4979171;28;20104;-93
2023/09/24 16:42:38;;;;;;;0.17;0.17;;;;;;;;;;4996125;28;20558;-90
2023/09/24 16:45:05;;;;;;;0.10;0.10;;;;;;;;;;4981820;28;20030;-92
2023/09/24 16:47:31;;;;;;;0.17;0.17;;;;;;;;;;4972008;28;20039;-95
2023/09/24 16:49:57;;;;;;;0.10;0.10;;;;;;;;;;4981690;28;20022;-91
2023/09/24 16:52:26;;;;;;;0.13;0.13;;;;;;;;;;4982577;28;20045;-91
2023/09/24 16:54:52;;;;;;;0.10;0.10;;;;;;;;;;4978909;28;20049;-91
2023/09/24 16:57:18;;;;;;;0.10;0.10;;;;;;;;;;4980829;28;20495;-90
2023/09/24 16:59:44;;;;;;;0.10;0.10;;;;;;;;;;4977045;28;20039;-93
2023/09/24 17:02:10;;;;;;;0.28;0.28;;;;;;;;;;4977738;28;20042;-90
2023/09/24 17:04:36;;;;;;;0.20;0.20;;;;;;;;;;4971245;28;20511;-91
2023/09/24 17:07:02;;;;;;;0.20;0.20;;;;;;;;;;4981551;28;20046;-90
2023/09/24 17:09:28;;;;;;;0.20;0.20;;;;;;;;;;4975964;28;20045;-89
2023/09/24 17:11:55;;;;;;;0.10;0.10;;;;;;;;;;4974179;28;20427;-90
2023/09/24 17:14:22;;;;;;;0.20;0.20;;;;;;;;;;4974101;28;20058;-90
2023/09/24 17:16:51;;;;;;;0.10;0.10;;;;;;;;;;4991299;28;20047;-89
2023/09/24 17:19:17;;;;;;;0.10;0.10;;;;;;;;;;4971386;28;20034;-89
2023/09/24 17:21:43;;;;;;;0.10;0.10;;;;;;;;;;4978586;28;20507;-89
2023/09/24 17:24:09;;;;;;;0.10;0.10;;;;;;;;;;4979035;28;20038;-93
2023/09/24 17:26:35;;;;;;;0.15;0.15;;;;;;;;;;4969509;28;20054;-93
2023/09/24 17:29:01;;;;;;;0.10;0.10;;;;;;;;;;4970528;28;20432;-93
2023/09/24 17:31:29;;;;;;;0.28;0.28;;;;;;;;;;4996808;28;20046;-93
2023/09/24 17:33:58;;;;;;;0.30;0.30;;;;;;;;;;4980238;28;20069;-92
2023/09/24 17:36:24;;;;;;;0.10;0.10;;;;;;;;;;4982476;28;20105;-93
2023/09/24 17:38:51;;;;;;;0.30;0.30;;;;;;;;;;4996248;28;20519;-91
2023/09/24 17:41:17;;;;;;;0.22;0.22;;;;;;;;;;4961610;28;20038;-91
2023/09/24 17:43:43;;;;;;;0.20;0.20;;;;;;;;;;4980689;28;20113;-91
2023/09/24 17:46:15;;;;;;;0.10;0.10;;;;;;;;;;4981393;28;20042;-92
2023/09/24 17:48:41;;;;;;;0.20;0.20;;;;;;;;;;4980778;28;20515;-93
2023/09/24 17:51:12;;;;;;;0.15;0.15;;;;;;;;;;4979193;28;20046;-92
2023/09/24 17:53:39;;;;;;;0.10;0.10;;;;;;;;;;4965502;28;20041;-93
2023/09/24 17:56:05;;;;;;;0.10;0.10;;;;;;;;;;4982143;28;20066;-93
2023/09/24 17:58:31;;;;;;;0.10;0.10;;;;;;;;;;4980161;28;20038;-93
2023/09/24 18:01:09;;;;;;;0.17;0.17;;;;;;;;;;4995936;28;20389;-93
2023/09/24 18:03:35;;;;;;;0.10;0.10;;;;;;;;;;4979324;28;20042;-94
2023/09/24 18:06:01;;;;;;;0.10;0.10;;;;;;;;;;4978434;28;20038;-92
2023/09/24 18:08:32;;;;;;;0.10;0.10;;;;;;;;;;4978268;28;20047;-93
2023/09/24 18:10:58;;;;;;;0.20;0.20;;;;;;;;;;4966555;28;20050;-92
2023/09/24 18:13:24;;;;;;;0.10;0.10;;;;;;;;;;4980070;28;20038;-92
2023/09/24 18:15:54;;;;;;;0.10;0.10;;;;;;;;;;4980811;28;20042;-93
2023/09/24 18:18:24;;;;;;;0.10;0.10;;;;;;;;;;4979730;28;20042;-92
2023/09/24 18:20:53;;;;;;;0.20;0.20;;;;;;;;;;4982195;28;20061;-92
2023/09/24 18:23:20;;;;;;;0.20;0.20;;;;;;;;;;4976198;28;20034;-93
2023/09/24 18:25:47;;;;;;;0.10;0.10;;;;;;;;;;4960724;28;20035;-93
2023/09/24 18:28:13;;;;;;;0.17;0.17;;;;;;;;;;4961242;28;20098;-93
2023/09/24 18:30:39;;;;;;;0.20;0.20;;;;;;;;;;4976286;28;20557;-92
2023/09/24 18:33:08;;;;;;;0.30;0.30;;;;;;;;;;4979837;28;20038;-92
2023/09/24 18:35:35;;;;;;;0.15;0.15;;;;;;;;;;4980019;28;20050;-92
2023/09/24 18:38:02;;;;;;;0.20;0.20;;;;;;;;;;4995955;28;20042;-92
2023/09/24 18:40:29;;;;;;;0.15;0.15;;;;;;;;;;4979710;28;20038;-91
2023/09/24 18:42:55;;;;;;;0.10;0.10;;;;;;;;;;4960404;28;20089;-92
2023/09/24 18:45:24;;;;;;;0.20;0.20;;;;;;;;;;4960791;28;20046;-93
2023/09/24 18:47:50;;;;;;;0.20;0.20;;;;;;;;;;4959597;28;20058;-92
2023/09/24 18:50:16;;;;;;;0.30;0.30;;;;;;;;;;4980270;28;20043;-94
2023/09/24 18:52:42;;;;;;;0.25;0.25;;;;;;;;;;4981030;28;20058;-93
2023/09/24 18:55:10;;;;;;;0.28;0.28;;;;;;;;;;4976664;28;20049;-94
2023/09/24 18:57:36;;;;;;;0.15;0.15;;;;;;;;;;4961926;28;20047;-93
2023/09/24 19:00:08;;;;;;;0.20;0.20;;;;;;;;;;4974655;28;20054;-92
2023/09/24 19:02:34;;;;;;;0.20;0.20;;;;;;;;;;4979999;28;20042;-92
2023/09/24 19:05:02;;;;;;;0.20;0.20;;;;;;;;;;4979966;28;20054;-94
2023/09/24 19:07:29;;;;;;;0.20;0.20;;;;;;;;;;4979639;28;20511;-92
2023/09/24 19:09:55;;;;;;;0.10;0.10;;;;;;;;;;4979205;28;20113;-92
2023/09/24 19:12:21;;;;;;;0.20;0.20;;;;;;;;;;4979104;28;20042;-93
2023/09/24 19:14:47;;;;;;;0.20;0.20;;;;;;;;;;4976012;28;20571;-93
2023/09/24 19:17:15;;;;;;;0.15;0.15;;;;;;;;;;4971367;28;20043;-91
2023/09/24 19:19:44;;;;;;;0.22;0.22;;;;;;;;;;4978848;28;20034;-93
2023/09/24 19:22:10;;;;;;;0.20;0.20;;;;;;;;;;4979103;28;20125;-93
2023/09/24 19:24:36;;;;;;;0.20;0.20;;;;;;;;;;4978677;28;20128;-92
2023/09/24 19:27:03;;;;;;;0.20;0.20;;;;;;;;;;4979734;28;20105;-92
2023/09/24 19:29:30;;;;;;;0.20;0.20;;;;;;;;;;4975595;28;20050;-94
2023/09/24 19:31:56;;;;;;;0.20;0.20;;;;;;;;;;4967251;28;20504;-93
2023/09/24 19:34:27;;;;;;;0.20;0.20;;;;;;;;;;4978673;28;20042;-93
2023/09/24 19:36:53;;;;;;;0.10;0.10;;;;;;;;;;4980686;28;20057;-94
2023/09/24 19:39:22;;;;;;;0.30;0.30;;;;;;;;;;4980174;28;20539;-93
2023/09/24 19:41:48;;;;;;;0.10;0.10;;;;;;;;;;4978971;28;20126;-93
2023/09/24 19:44:14;;;;;;;0.30;0.30;;;;;;;;;;4979317;28;20046;-94
2023/09/24 19:46:40;;;;;;;0.30;0.30;;;;;;;;;;4980959;28;20089;-94
2023/09/24 19:49:06;;;;;;;0.30;0.30;;;;;;;;;;4975834;28;20046;-92
2023/09/24 19:51:32;;;;;;;0.20;0.20;;;;;;;;;;4964210;28;20134;-93
2023/09/24 19:53:58;;;;;;;0.30;0.30;;;;;;;;;;4978938;28;20038;-94
2023/09/24 19:56:24;;;;;;;0.30;0.30;;;;;;;;;;4980502;28;20038;-93
2023/09/24 19:58:51;;;;;;;0.20;0.20;;;;;;;;;;4979538;28;20034;-93
2023/09/24 20:01:20;;;;;;;0.10;0.10;;;;;;;;;;4998342;28;20310;-92
2023/09/24 20:03:46;;;;;;;0.15;0.15;;;;;;;;;;4983017;28;20070;-94
2023/09/24 20:06:12;;;;;;;0.30;0.30;;;;;;;;;;5000635;28;20046;-92
2023/09/24 20:08:47;;;;;;;0.30;0.30;;;;;;;;;;4983269;28;20097;-93
2023/09/24 20:11:13;;;;;;;0.10;0.10;;;;;;;;;;4979018;28;20102;-93
2023/09/24 20:13:45;;;;;;;0.20;0.20;;;;;;;;;;4962961;28;20043;-92
2023/09/24 20:16:11;;;;;;;0.20;0.20;;;;;;;;;;4963622;28;20125;-91
2023/09/24 20:18:37;;;;;;;0.10;0.10;;;;;;;;;;4979412;28;20042;-93
2023/09/24 20:21:03;;;;;;;0.32;0.32;;;;;;;;;;4967654;28;20049;-92
2023/09/24 20:23:32;;;;;;;0.20;0.20;;;;;;;;;;4982356;28;20045;-92
2023/09/24 20:25:58;;;;;;;0.20;0.20;;;;;;;;;;4982652;28;20040;-93
2023/09/24 20:28:25;;;;;;;0.30;0.30;;;;;;;;;;4982670;28;20034;-93
2023/09/24 20:30:51;;;;;;;0.20;0.20;;;;;;;;;;4982702;28;20326;-91